Terminal Aerodrome Forecast
Issued by NWS Pocatello, ID

Home | Current Version | Previous Version | Text Only | Print | Product List | Glossary On
Versions: 1 2 3 4 5 6 7 8 9 10 11 12 13
000
FTUS45 KPIH 211100
TAFIDA
TAF
KIDA 211120Z 2112/2212 VRB05KT 4SM BR SCT090 BKN120
     FM211600 VRB05KT P6SM BKN120
     FM220000 22006KT P6SM SCT050 BKN120
     FM220700 18010KT P6SM VCSH SCT015 BKN040
     FM221000 19012KT 4SM -SN SCT008 BKN015=

USA.gov is the U.S. government's official web portal to all federal, state and local government web resources and services.